Terminal Aerodrome Forecast
Issued by NWS

Home | Current Version | Previous Version | Text Only | Print | Product List | Glossary On
Versions: 1 2 3 4 5 6 7 8 9 10 11 12 13 14 15 16 17 18 19 20 21 22
000
FTUS43 KGRB 211100
TAFCWA
TAF
KCWA 211137Z 2112/2212 16007KT 4SM BR OVC006
      TEMPO 2112/2116 2SM -FZDZ BR
     FM211600 15008KT 4SM -FZDZSN BR SCT006 OVC012
     FM212000 15010KT 3SM -SN BR OVC012
      TEMPO 2123/2203 1 1/2SM -SN
     FM220800 13010KT 3SM -FZDZSN BR OVC009=

USA.gov is the U.S. government's official web portal to all federal, state and local government web resources and services.